sensor_id;sensor_type;location;lat;lon;timestamp;P1;durP1;ratioP1;P2;durP2;ratioP2
24305;SDS011;12423;48.768;8.850;2023-04-24T00:00:32;4.82;;;1.13;;
24305;SDS011;12423;48.768;8.850;2023-04-24T00:02:33;4.97;;;1.00;;
24305;SDS011;12423;48.768;8.850;2023-04-24T00:04:34;2.03;;;0.98;;
24305;SDS011;12423;48.768;8.850;2023-04-24T00:06:36;2.97;;;1.30;;
24305;SDS011;12423;48.768;8.850;2023-04-24T00:08:38;5.97;;;3.25;;
24305;SDS011;12423;48.768;8.850;2023-04-24T00:10:39;7.38;;;2.58;;
24305;SDS011;12423;48.768;8.850;2023-04-24T00:12:40;2.88;;;1.00;;
24305;SDS011;12423;48.768;8.850;2023-04-24T00:14:41;4.93;;;1.67;;
24305;SDS011;12423;48.768;8.850;2023-04-24T00:16:42;3.75;;;1.10;;
24305;SDS011;12423;48.768;8.850;2023-04-24T00:18:43;3.78;;;1.52;;
24305;SDS011;12423;48.768;8.850;2023-04-24T00:20:45;2.65;;;1.27;;
24305;SDS011;12423;48.768;8.850;2023-04-24T00:22:47;4.10;;;1.65;;
24305;SDS011;12423;48.768;8.850;2023-04-24T00:24:48;1.63;;;0.80;;
24305;SDS011;12423;48.768;8.850;2023-04-24T00:26:49;1.38;;;0.60;;
24305;SDS011;12423;48.768;8.850;2023-04-24T00:28:50;3.08;;;2.05;;
24305;SDS011;12423;48.768;8.850;2023-04-24T00:30:51;2.25;;;1.00;;
24305;SDS011;12423;48.768;8.850;2023-04-24T00:32:53;3.63;;;0.90;;
24305;SDS011;12423;48.768;8.850;2023-04-24T00:34:54;3.25;;;1.48;;
24305;SDS011;12423;48.768;8.850;2023-04-24T00:36:55;3.80;;;0.85;;
24305;SDS011;12423;48.768;8.850;2023-04-24T00:38:56;2.88;;;0.90;;
24305;SDS011;12423;48.768;8.850;2023-04-24T00:40:58;5.38;;;2.63;;
24305;SDS011;12423;48.768;8.850;2023-04-24T00:42:59;5.13;;;1.15;;
24305;SDS011;12423;48.768;8.850;2023-04-24T00:45:00;6.38;;;2.75;;
24305;SDS011;12423;48.768;8.850;2023-04-24T00:47:01;6.40;;;2.55;;
24305;SDS011;12423;48.768;8.850;2023-04-24T00:49:02;2.80;;;1.00;;
24305;SDS011;12423;48.768;8.850;2023-04-24T00:51:05;2.67;;;0.93;;
24305;SDS011;12423;48.768;8.850;2023-04-24T00:53:07;2.95;;;0.80;;
24305;SDS011;12423;48.768;8.850;2023-04-24T00:55:08;5.75;;;2.08;;
24305;SDS011;12423;48.768;8.850;2023-04-24T00:57:09;1.40;;;0.80;;
24305;SDS011;12423;48.768;8.850;2023-04-24T00:59:11;1.85;;;0.70;;
24305;SDS011;12423;48.768;8.850;2023-04-24T01:01:13;2.13;;;0.90;;
24305;SDS011;12423;48.768;8.850;2023-04-24T01:03:15;3.30;;;1.40;;
24305;SDS011;12423;48.768;8.850;2023-04-24T01:05:17;5.07;;;1.77;;
24305;SDS011;12423;48.768;8.850;2023-04-24T01:07:19;2.72;;;0.98;;
24305;SDS011;12423;48.768;8.850;2023-04-24T01:09:21;1.58;;;0.65;;
24305;SDS011;12423;48.768;8.850;2023-04-24T01:11:24;1.63;;;0.75;;
24305;SDS011;12423;48.768;8.850;2023-04-24T01:13:25;3.35;;;1.40;;
24305;SDS011;12423;48.768;8.850;2023-04-24T01:15:26;3.30;;;0.88;;
24305;SDS011;12423;48.768;8.850;2023-04-24T01:17:27;2.88;;;0.93;;
24305;SDS011;12423;48.768;8.850;2023-04-24T01:19:29;1.75;;;0.80;;
24305;SDS011;12423;48.768;8.850;2023-04-24T01:21:31;5.90;;;2.33;;
24305;SDS011;12423;48.768;8.850;2023-04-24T01:23:37;4.00;;;1.50;;
24305;SDS011;12423;48.768;8.850;2023-04-24T01:25:38;2.30;;;0.80;;
24305;SDS011;12423;48.768;8.850;2023-04-24T01:27:39;3.03;;;1.10;;
24305;SDS011;12423;48.768;8.850;2023-04-24T01:29:41;2.17;;;0.98;;
24305;SDS011;12423;48.768;8.850;2023-04-24T01:31:44;2.45;;;1.17;;
24305;SDS011;12423;48.768;8.850;2023-04-24T01:33:45;2.20;;;1.02;;
24305;SDS011;12423;48.768;8.850;2023-04-24T01:35:46;4.05;;;0.85;;
24305;SDS011;12423;48.768;8.850;2023-04-24T01:37:48;2.33;;;1.25;;
24305;SDS011;12423;48.768;8.850;2023-04-24T01:39:50;2.42;;;1.00;;
24305;SDS011;12423;48.768;8.850;2023-04-24T01:41:52;3.17;;;1.45;;
24305;SDS011;12423;48.768;8.850;2023-04-24T01:43:54;1.85;;;0.90;;
24305;SDS011;12423;48.768;8.850;2023-04-24T01:45:55;3.20;;;1.10;;
24305;SDS011;12423;48.768;8.850;2023-04-24T01:47:56;2.80;;;1.08;;
24305;SDS011;12423;48.768;8.850;2023-04-24T01:49:58;2.58;;;0.70;;
24305;SDS011;12423;48.768;8.850;2023-04-24T01:51:59;3.00;;;1.13;;
24305;SDS011;12423;48.768;8.850;2023-04-24T01:54:00;4.97;;;2.08;;
24305;SDS011;12423;48.768;8.850;2023-04-24T01:56:03;7.78;;;2.85;;
24305;SDS011;12423;48.768;8.850;2023-04-24T01:58:04;6.95;;;4.47;;
24305;SDS011;12423;48.768;8.850;2023-04-24T02:00:06;9.48;;;7.88;;
24305;SDS011;12423;48.768;8.850;2023-04-24T02:02:13;10.43;;;6.38;;
24305;SDS011;12423;48.768;8.850;2023-04-24T02:04:15;9.80;;;8.93;;
24305;SDS011;12423;48.768;8.850;2023-04-24T02:06:16;8.73;;;6.20;;
24305;SDS011;12423;48.768;8.850;2023-04-24T02:08:17;6.13;;;3.75;;
24305;SDS011;12423;48.768;8.850;2023-04-24T02:10:18;7.80;;;4.57;;
24305;SDS011;12423;48.768;8.850;2023-04-24T02:12:19;8.52;;;6.57;;
24305;SDS011;12423;48.768;8.850;2023-04-24T02:14:20;10.93;;;9.30;;
24305;SDS011;12423;48.768;8.850;2023-04-24T02:16:21;8.73;;;7.85;;
24305;SDS011;12423;48.768;8.850;2023-04-24T02:18:22;7.05;;;4.40;;
24305;SDS011;12423;48.768;8.850;2023-04-24T02:20:25;7.55;;;6.25;;
24305;SDS011;12423;48.768;8.850;2023-04-24T02:22:27;8.75;;;4.10;;
24305;SDS011;12423;48.768;8.850;2023-04-24T02:24:28;10.30;;;9.35;;
24305;SDS011;12423;48.768;8.850;2023-04-24T02:26:29;10.00;;;9.00;;
24305;SDS011;12423;48.768;8.850;2023-04-24T02:28:32;10.43;;;9.40;;
24305;SDS011;12423;48.768;8.850;2023-04-24T02:30:33;11.38;;;10.20;;
24305;SDS011;12423;48.768;8.850;2023-04-24T02:32:34;14.52;;;13.32;;
24305;SDS011;12423;48.768;8.850;2023-04-24T02:34:36;16.88;;;15.52;;
24305;SDS011;12423;48.768;8.850;2023-04-24T02:36:37;9.57;;;8.32;;
24305;SDS011;12423;48.768;8.850;2023-04-24T02:38:38;21.30;;;19.73;;
24305;SDS011;12423;48.768;8.850;2023-04-24T02:40:40;6.63;;;3.45;;
24305;SDS011;12423;48.768;8.850;2023-04-24T02:42:41;6.13;;;2.92;;
24305;SDS011;12423;48.768;8.850;2023-04-24T02:44:42;6.88;;;3.63;;
24305;SDS011;12423;48.768;8.850;2023-04-24T02:46:43;7.15;;;3.05;;
24305;SDS011;12423;48.768;8.850;2023-04-24T02:48:45;6.95;;;3.88;;
24305;SDS011;12423;48.768;8.850;2023-04-24T02:50:46;4.80;;;2.63;;
24305;SDS011;12423;48.768;8.850;2023-04-24T02:52:47;6.13;;;3.70;;
24305;SDS011;12423;48.768;8.850;2023-04-24T02:54:48;4.70;;;1.80;;
24305;SDS011;12423;48.768;8.850;2023-04-24T02:56:49;6.82;;;2.22;;
24305;SDS011;12423;48.768;8.850;2023-04-24T02:58:50;6.68;;;2.35;;
24305;SDS011;12423;48.768;8.850;2023-04-24T03:00:55;6.28;;;3.00;;
24305;SDS011;12423;48.768;8.850;2023-04-24T03:02:56;4.53;;;2.13;;
24305;SDS011;12423;48.768;8.850;2023-04-24T03:04:57;4.93;;;2.47;;
24305;SDS011;12423;48.768;8.850;2023-04-24T03:06:58;7.43;;;3.08;;
24305;SDS011;12423;48.768;8.850;2023-04-24T03:09:00;10.23;;;7.10;;
24305;SDS011;12423;48.768;8.850;2023-04-24T03:11:01;12.63;;;11.38;;
24305;SDS011;12423;48.768;8.850;2023-04-24T03:13:02;20.58;;;19.10;;
24305;SDS011;12423;48.768;8.850;2023-04-24T03:15:03;22.55;;;21.00;;
24305;SDS011;12423;48.768;8.850;2023-04-24T03:17:05;38.50;;;36.05;;
24305;SDS011;12423;48.768;8.850;2023-04-24T03:19:06;23.95;;;22.10;;
24305;SDS011;12423;48.768;8.850;2023-04-24T03:21:12;33.08;;;30.83;;
24305;SDS011;12423;48.768;8.850;2023-04-24T03:23:14;40.30;;;37.70;;
24305;SDS011;12423;48.768;8.850;2023-04-24T03:25:16;28.23;;;26.40;;
24305;SDS011;12423;48.768;8.850;2023-04-24T03:27:17;37.28;;;35.20;;
24305;SDS011;12423;48.768;8.850;2023-04-24T03:29:30;47.95;;;45.05;;
24305;SDS011;12423;48.768;8.850;2023-04-24T03:31:32;40.25;;;37.95;;
24305;SDS011;12423;48.768;8.850;2023-04-24T03:33:34;28.77;;;26.65;;
24305;SDS011;12423;48.768;8.850;2023-04-24T03:35:35;36.22;;;33.95;;
24305;SDS011;12423;48.768;8.850;2023-04-24T03:37:41;37.40;;;35.10;;
24305;SDS011;12423;48.768;8.850;2023-04-24T03:40:08;38.65;;;36.15;;
24305;SDS011;12423;48.768;8.850;2023-04-24T03:42:12;34.30;;;32.03;;
24305;SDS011;12423;48.768;8.850;2023-04-24T03:44:23;43.03;;;40.50;;
24305;SDS011;12423;48.768;8.850;2023-04-24T03:46:25;43.08;;;40.88;;
24305;SDS011;12423;48.768;8.850;2023-04-24T03:48:30;39.20;;;36.65;;
24305;SDS011;12423;48.768;8.850;2023-04-24T03:50:31;32.60;;;30.48;;
24305;SDS011;12423;48.768;8.850;2023-04-24T03:52:35;38.78;;;36.35;;
24305;SDS011;12423;48.768;8.850;2023-04-24T03:54:38;27.25;;;25.40;;
24305;SDS011;12423;48.768;8.850;2023-04-24T03:56:39;38.85;;;36.38;;
24305;SDS011;12423;48.768;8.850;2023-04-24T03:58:41;48.10;;;45.35;;
24305;SDS011;12423;48.768;8.850;2023-04-24T04:00:43;64.55;;;60.47;;
24305;SDS011;12423;48.768;8.850;2023-04-24T04:03:15;91.80;;;86.90;;
24305;SDS011;12423;48.768;8.850;2023-04-24T04:05:17;62.03;;;58.47;;
24305;SDS011;12423;48.768;8.850;2023-04-24T04:07:18;67.45;;;63.60;;
24305;SDS011;12423;48.768;8.850;2023-04-24T04:09:19;74.80;;;71.07;;
24305;SDS011;12423;48.768;8.850;2023-04-24T04:11:20;109.60;;;104.10;;
24305;SDS011;12423;48.768;8.850;2023-04-24T04:13:22;116.80;;;110.45;;
24305;SDS011;12423;48.768;8.850;2023-04-24T04:15:23;162.98;;;155.07;;
24305;SDS011;12423;48.768;8.850;2023-04-24T04:17:25;130.40;;;123.72;;
24305;SDS011;12423;48.768;8.850;2023-04-24T04:19:26;150.35;;;142.63;;
24305;SDS011;12423;48.768;8.850;2023-04-24T04:21:28;164.75;;;156.50;;
24305;SDS011;12423;48.768;8.850;2023-04-24T04:23:37;147.75;;;139.93;;
24305;SDS011;12423;48.768;8.850;2023-04-24T04:25:49;152.38;;;144.57;;
24305;SDS011;12423;48.768;8.850;2023-04-24T04:27:52;146.88;;;139.07;;
24305;SDS011;12423;48.768;8.850;2023-04-24T04:29:54;147.15;;;139.70;;
24305;SDS011;12423;48.768;8.850;2023-04-24T04:31:57;135.23;;;128.13;;
24305;SDS011;12423;48.768;8.850;2023-04-24T04:33:59;111.03;;;105.25;;
24305;SDS011;12423;48.768;8.850;2023-04-24T04:36:02;125.68;;;119.07;;
24305;SDS011;12423;48.768;8.850;2023-04-24T04:38:05;137.13;;;129.93;;
24305;SDS011;12423;48.768;8.850;2023-04-24T04:40:16;139.02;;;131.93;;
24305;SDS011;12423;48.768;8.850;2023-04-24T04:42:25;118.95;;;112.82;;
24305;SDS011;12423;48.768;8.850;2023-04-24T04:44:27;70.07;;;66.32;;
24305;SDS011;12423;48.768;8.850;2023-04-24T04:46:29;31.00;;;29.30;;
24305;SDS011;12423;48.768;8.850;2023-04-24T04:48:40;37.33;;;35.22;;
24305;SDS011;12423;48.768;8.850;2023-04-24T04:50:42;33.90;;;31.80;;
24305;SDS011;12423;48.768;8.850;2023-04-24T04:52:44;40.40;;;38.00;;
24305;SDS011;12423;48.768;8.850;2023-04-24T04:54:55;16.40;;;15.15;;
24305;SDS011;12423;48.768;8.850;2023-04-24T04:56:59;13.95;;;12.82;;
24305;SDS011;12423;48.768;8.850;2023-04-24T04:59:01;22.45;;;20.92;;
24305;SDS011;12423;48.768;8.850;2023-04-24T05:01:02;38.75;;;36.30;;
24305;SDS011;12423;48.768;8.850;2023-04-24T05:03:09;36.78;;;34.70;;
24305;SDS011;12423;48.768;8.850;2023-04-24T05:05:11;62.22;;;58.75;;
24305;SDS011;12423;48.768;8.850;2023-04-24T05:07:12;46.55;;;43.75;;
24305;SDS011;12423;48.768;8.850;2023-04-24T05:09:17;25.75;;;24.17;;
24305;SDS011;12423;48.768;8.850;2023-04-24T05:11:24;27.98;;;26.30;;
24305;SDS011;12423;48.768;8.850;2023-04-24T05:13:26;32.38;;;30.27;;
24305;SDS011;12423;48.768;8.850;2023-04-24T05:15:27;28.35;;;26.70;;
24305;SDS011;12423;48.768;8.850;2023-04-24T05:17:29;49.78;;;46.90;;
24305;SDS011;12423;48.768;8.850;2023-04-24T05:19:31;76.28;;;72.32;;
24305;SDS011;12423;48.768;8.850;2023-04-24T05:21:36;43.88;;;41.25;;
24305;SDS011;12423;48.768;8.850;2023-04-24T05:23:37;40.40;;;37.70;;
24305;SDS011;12423;48.768;8.850;2023-04-24T05:25:38;30.08;;;28.23;;
24305;SDS011;12423;48.768;8.850;2023-04-24T05:27:44;42.33;;;39.63;;
24305;SDS011;12423;48.768;8.850;2023-04-24T05:29:49;35.10;;;32.90;;
24305;SDS011;12423;48.768;8.850;2023-04-24T05:31:50;4.57;;;1.98;;
24305;SDS011;12423;48.768;8.850;2023-04-24T05:33:52;4.53;;;2.50;;
24305;SDS011;12423;48.768;8.850;2023-04-24T05:35:53;39.60;;;36.88;;
24305;SDS011;12423;48.768;8.850;2023-04-24T05:37:56;28.00;;;26.23;;
24305;SDS011;12423;48.768;8.850;2023-04-24T05:39:57;23.73;;;22.02;;
24305;SDS011;12423;48.768;8.850;2023-04-24T05:41:58;8.95;;;8.13;;
24305;SDS011;12423;48.768;8.850;2023-04-24T05:44:01;2.67;;;1.00;;
24305;SDS011;12423;48.768;8.850;2023-04-24T05:46:02;3.13;;;1.23;;
24305;SDS011;12423;48.768;8.850;2023-04-24T05:48:04;2.47;;;0.95;;
24305;SDS011;12423;48.768;8.850;2023-04-24T05:50:07;2.70;;;0.95;;
24305;SDS011;12423;48.768;8.850;2023-04-24T05:52:08;2.55;;;1.10;;
24305;SDS011;12423;48.768;8.850;2023-04-24T05:54:11;2.75;;;1.17;;
24305;SDS011;12423;48.768;8.850;2023-04-24T05:56:12;1.50;;;0.52;;
24305;SDS011;12423;48.768;8.850;2023-04-24T05:58:15;2.30;;;0.90;;
24305;SDS011;12423;48.768;8.850;2023-04-24T06:00:16;2.25;;;0.93;;
24305;SDS011;12423;48.768;8.850;2023-04-24T06:02:25;3.08;;;1.13;;
24305;SDS011;12423;48.768;8.850;2023-04-24T06:04:28;2.22;;;0.82;;
24305;SDS011;12423;48.768;8.850;2023-04-24T06:06:29;2.83;;;1.10;;
24305;SDS011;12423;48.768;8.850;2023-04-24T06:08:31;4.35;;;1.55;;
24305;SDS011;12423;48.768;8.850;2023-04-24T06:10:33;2.67;;;1.10;;
24305;SDS011;12423;48.768;8.850;2023-04-24T06:12:35;3.42;;;1.42;;
24305;SDS011;12423;48.768;8.850;2023-04-24T06:14:41;2.88;;;1.05;;
24305;SDS011;12423;48.768;8.850;2023-04-24T06:16:52;3.38;;;1.15;;
24305;SDS011;12423;48.768;8.850;2023-04-24T06:19:04;3.15;;;1.20;;
24305;SDS011;12423;48.768;8.850;2023-04-24T06:21:06;2.85;;;1.10;;
24305;SDS011;12423;48.768;8.850;2023-04-24T06:23:07;5.47;;;3.22;;
24305;SDS011;12423;48.768;8.850;2023-04-24T06:25:08;3.53;;;1.38;;
24305;SDS011;12423;48.768;8.850;2023-04-24T06:27:09;19.92;;;16.10;;
24305;SDS011;12423;48.768;8.850;2023-04-24T06:29:10;18.60;;;16.23;;
24305;SDS011;12423;48.768;8.850;2023-04-24T06:31:11;13.82;;;12.63;;
24305;SDS011;12423;48.768;8.850;2023-04-24T06:33:13;20.73;;;18.65;;
24305;SDS011;12423;48.768;8.850;2023-04-24T06:35:14;29.90;;;27.50;;
24305;SDS011;12423;48.768;8.850;2023-04-24T06:37:15;17.27;;;15.55;;
24305;SDS011;12423;48.768;8.850;2023-04-24T06:39:16;36.53;;;34.40;;
24305;SDS011;12423;48.768;8.850;2023-04-24T06:41:17;33.33;;;31.00;;
24305;SDS011;12423;48.768;8.850;2023-04-24T06:43:19;34.60;;;32.00;;
24305;SDS011;12423;48.768;8.850;2023-04-24T06:45:20;34.47;;;32.25;;
24305;SDS011;12423;48.768;8.850;2023-04-24T06:47:22;33.80;;;31.17;;
24305;SDS011;12423;48.768;8.850;2023-04-24T06:49:23;44.95;;;42.40;;
24305;SDS011;12423;48.768;8.850;2023-04-24T06:51:24;69.00;;;65.00;;
24305;SDS011;12423;48.768;8.850;2023-04-24T06:53:26;119.68;;;113.32;;
24305;SDS011;12423;48.768;8.850;2023-04-24T06:55:27;129.07;;;122.43;;
24305;SDS011;12423;48.768;8.850;2023-04-24T06:57:29;142.35;;;134.50;;
24305;SDS011;12423;48.768;8.850;2023-04-24T06:59:30;132.93;;;125.72;;
24305;SDS011;12423;48.768;8.850;2023-04-24T07:01:31;134.10;;;127.03;;
24305;SDS011;12423;48.768;8.850;2023-04-24T07:03:32;144.57;;;136.85;;
24305;SDS011;12423;48.768;8.850;2023-04-24T07:05:33;157.68;;;149.27;;
24305;SDS011;12423;48.768;8.850;2023-04-24T07:07:35;156.48;;;148.25;;
24305;SDS011;12423;48.768;8.850;2023-04-24T07:09:38;149.95;;;142.23;;
24305;SDS011;12423;48.768;8.850;2023-04-24T07:11:41;146.55;;;139.05;;
24305;SDS011;12423;48.768;8.850;2023-04-24T07:13:42;148.23;;;139.98;;
24305;SDS011;12423;48.768;8.850;2023-04-24T07:15:44;165.20;;;156.77;;
24305;SDS011;12423;48.768;8.850;2023-04-24T07:17:46;190.70;;;180.55;;
24305;SDS011;12423;48.768;8.850;2023-04-24T07:19:47;196.95;;;186.60;;
24305;SDS011;12423;48.768;8.850;2023-04-24T07:21:48;157.88;;;149.52;;
24305;SDS011;12423;48.768;8.850;2023-04-24T07:23:49;188.73;;;178.73;;
24305;SDS011;12423;48.768;8.850;2023-04-24T07:25:50;177.00;;;168.00;;
24305;SDS011;12423;48.768;8.850;2023-04-24T07:27:53;161.18;;;152.63;;
24305;SDS011;12423;48.768;8.850;2023-04-24T07:29:54;178.52;;;168.90;;
24305;SDS011;12423;48.768;8.850;2023-04-24T07:31:55;186.73;;;176.88;;
24305;SDS011;12423;48.768;8.850;2023-04-24T07:33:57;186.90;;;177.27;;
24305;SDS011;12423;48.768;8.850;2023-04-24T07:35:58;171.23;;;162.30;;
24305;SDS011;12423;48.768;8.850;2023-04-24T07:37:59;162.68;;;154.38;;
24305;SDS011;12423;48.768;8.850;2023-04-24T07:40:01;186.35;;;176.40;;
24305;SDS011;12423;48.768;8.850;2023-04-24T07:42:02;195.60;;;185.48;;
24305;SDS011;12423;48.768;8.850;2023-04-24T07:44:03;198.32;;;188.23;;
24305;SDS011;12423;48.768;8.850;2023-04-24T07:46:05;182.15;;;172.35;;
24305;SDS011;12423;48.768;8.850;2023-04-24T07:48:07;197.30;;;186.07;;
24305;SDS011;12423;48.768;8.850;2023-04-24T07:50:09;205.32;;;194.38;;
24305;SDS011;12423;48.768;8.850;2023-04-24T07:52:10;195.75;;;185.32;;
24305;SDS011;12423;48.768;8.850;2023-04-24T07:54:11;210.70;;;199.88;;
24305;SDS011;12423;48.768;8.850;2023-04-24T07:56:13;245.98;;;232.70;;
24305;SDS011;12423;48.768;8.850;2023-04-24T07:58:14;223.63;;;210.30;;
24305;SDS011;12423;48.768;8.850;2023-04-24T08:00:15;190.10;;;178.85;;
24305;SDS011;12423;48.768;8.850;2023-04-24T08:02:17;215.15;;;202.65;;
24305;SDS011;12423;48.768;8.850;2023-04-24T08:04:18;203.13;;;191.80;;
24305;SDS011;12423;48.768;8.850;2023-04-24T08:06:19;243.85;;;229.98;;
24305;SDS011;12423;48.768;8.850;2023-04-24T08:08:21;241.52;;;227.15;;
24305;SDS011;12423;48.768;8.850;2023-04-24T08:10:23;258.63;;;242.20;;
24305;SDS011;12423;48.768;8.850;2023-04-24T08:12:24;266.42;;;249.77;;
24305;SDS011;12423;48.768;8.850;2023-04-24T08:14:25;233.25;;;219.68;;
24305;SDS011;12423;48.768;8.850;2023-04-24T08:16:27;228.63;;;215.65;;
24305;SDS011;12423;48.768;8.850;2023-04-24T08:18:28;278.13;;;260.13;;
24305;SDS011;12423;48.768;8.850;2023-04-24T08:20:29;279.13;;;263.02;;
24305;SDS011;12423;48.768;8.850;2023-04-24T08:22:30;261.05;;;245.60;;
24305;SDS011;12423;48.768;8.850;2023-04-24T08:24:31;260.45;;;244.38;;
24305;SDS011;12423;48.768;8.850;2023-04-24T08:26:33;233.90;;;221.43;;
24305;SDS011;12423;48.768;8.850;2023-04-24T08:28:34;268.60;;;253.68;;
24305;SDS011;12423;48.768;8.850;2023-04-24T08:30:35;251.10;;;236.50;;
24305;SDS011;12423;48.768;8.850;2023-04-24T08:32:37;239.63;;;224.05;;
24305;SDS011;12423;48.768;8.850;2023-04-24T08:34:38;182.10;;;171.50;;
24305;SDS011;12423;48.768;8.850;2023-04-24T08:36:39;267.65;;;252.88;;
24305;SDS011;12423;48.768;8.850;2023-04-24T08:38:41;279.38;;;262.52;;
24305;SDS011;12423;48.768;8.850;2023-04-24T08:40:43;249.95;;;236.27;;
24305;SDS011;12423;48.768;8.850;2023-04-24T08:42:46;202.00;;;191.38;;
24305;SDS011;12423;48.768;8.850;2023-04-24T08:44:48;209.65;;;198.57;;
24305;SDS011;12423;48.768;8.850;2023-04-24T08:46:49;224.95;;;212.73;;
24305;SDS011;12423;48.768;8.850;2023-04-24T08:48:52;245.60;;;232.27;;
24305;SDS011;12423;48.768;8.850;2023-04-24T08:50:53;196.30;;;185.75;;
24305;SDS011;12423;48.768;8.850;2023-04-24T08:52:54;201.25;;;190.68;;
24305;SDS011;12423;48.768;8.850;2023-04-24T08:55:00;190.65;;;179.48;;
24305;SDS011;12423;48.768;8.850;2023-04-24T08:57:02;216.23;;;204.57;;
24305;SDS011;12423;48.768;8.850;2023-04-24T08:59:04;168.25;;;159.15;;
24305;SDS011;12423;48.768;8.850;2023-04-24T09:01:09;141.27;;;133.63;;
24305;SDS011;12423;48.768;8.850;2023-04-24T09:03:10;173.40;;;163.90;;
24305;SDS011;12423;48.768;8.850;2023-04-24T09:05:12;157.40;;;148.77;;
24305;SDS011;12423;48.768;8.850;2023-04-24T09:07:14;164.90;;;155.65;;
24305;SDS011;12423;48.768;8.850;2023-04-24T09:09:17;136.68;;;129.40;;
24305;SDS011;12423;48.768;8.850;2023-04-24T09:11:19;140.70;;;132.85;;
24305;SDS011;12423;48.768;8.850;2023-04-24T09:13:20;174.38;;;164.88;;
24305;SDS011;12423;48.768;8.850;2023-04-24T09:15:21;164.88;;;156.00;;
24305;SDS011;12423;48.768;8.850;2023-04-24T09:17:23;173.90;;;164.55;;
24305;SDS011;12423;48.768;8.850;2023-04-24T09:19:27;159.82;;;151.75;;
24305;SDS011;12423;48.768;8.850;2023-04-24T09:21:32;145.13;;;136.75;;
24305;SDS011;12423;48.768;8.850;2023-04-24T09:23:34;174.75;;;165.23;;
24305;SDS011;12423;48.768;8.850;2023-04-24T09:25:35;170.68;;;161.73;;
24305;SDS011;12423;48.768;8.850;2023-04-24T09:27:36;198.63;;;188.35;;
24305;SDS011;12423;48.768;8.850;2023-04-24T09:29:55;219.73;;;208.07;;
24305;SDS011;12423;48.768;8.850;2023-04-24T09:31:57;179.63;;;169.77;;
24305;SDS011;12423;48.768;8.850;2023-04-24T09:35:59;179.00;;;169.25;;
24305;SDS011;12423;48.768;8.850;2023-04-24T09:38:00;142.60;;;134.40;;
24305;SDS011;12423;48.768;8.850;2023-04-24T09:40:12;149.85;;;141.55;;
24305;SDS011;12423;48.768;8.850;2023-04-24T09:42:15;148.15;;;139.55;;
24305;SDS011;12423;48.768;8.850;2023-04-24T09:44:23;146.55;;;138.75;;
24305;SDS011;12423;48.768;8.850;2023-04-24T09:46:31;162.55;;;153.93;;
24305;SDS011;12423;48.768;8.850;2023-04-24T09:48:34;131.55;;;124.45;;
24305;SDS011;12423;48.768;8.850;2023-04-24T09:50:36;164.65;;;156.07;;
24305;SDS011;12423;48.768;8.850;2023-04-24T09:52:40;151.88;;;143.63;;
24305;SDS011;12423;48.768;8.850;2023-04-24T09:54:43;140.73;;;132.77;;
24305;SDS011;12423;48.768;8.850;2023-04-24T09:56:54;122.55;;;115.68;;
24305;SDS011;12423;48.768;8.850;2023-04-24T09:58:55;150.45;;;142.27;;
24305;SDS011;12423;48.768;8.850;2023-04-24T10:01:05;131.60;;;124.30;;
24305;SDS011;12423;48.768;8.850;2023-04-24T10:03:06;121.43;;;114.85;;
24305;SDS011;12423;48.768;8.850;2023-04-24T10:05:08;133.98;;;126.93;;
24305;SDS011;12423;48.768;8.850;2023-04-24T10:07:12;121.93;;;115.57;;
24305;SDS011;12423;48.768;8.850;2023-04-24T10:09:16;135.25;;;128.10;;
24305;SDS011;12423;48.768;8.850;2023-04-24T10:11:18;151.18;;;143.15;;
24305;SDS011;12423;48.768;8.850;2023-04-24T10:13:19;148.45;;;140.65;;
24305;SDS011;12423;48.768;8.850;2023-04-24T10:15:21;134.23;;;126.95;;
24305;SDS011;12423;48.768;8.850;2023-04-24T10:17:22;123.90;;;117.05;;
24305;SDS011;12423;48.768;8.850;2023-04-24T10:19:25;132.80;;;125.95;;
24305;SDS011;12423;48.768;8.850;2023-04-24T10:21:26;135.05;;;127.95;;
24305;SDS011;12423;48.768;8.850;2023-04-24T10:23:28;121.82;;;115.50;;
24305;SDS011;12423;48.768;8.850;2023-04-24T10:25:31;143.40;;;135.95;;
24305;SDS011;12423;48.768;8.850;2023-04-24T10:27:34;150.70;;;143.02;;
24305;SDS011;12423;48.768;8.850;2023-04-24T10:29:35;125.97;;;119.55;;
24305;SDS011;12423;48.768;8.850;2023-04-24T10:31:36;128.57;;;121.90;;
24305;SDS011;12423;48.768;8.850;2023-04-24T10:33:39;115.78;;;109.35;;
24305;SDS011;12423;48.768;8.850;2023-04-24T10:35:44;143.25;;;135.82;;
24305;SDS011;12423;48.768;8.850;2023-04-24T10:37:48;112.30;;;106.20;;
24305;SDS011;12423;48.768;8.850;2023-04-24T10:40:04;127.82;;;120.82;;
24305;SDS011;12423;48.768;8.850;2023-04-24T10:42:14;129.63;;;122.90;;
24305;SDS011;12423;48.768;8.850;2023-04-24T10:44:16;134.30;;;127.17;;
24305;SDS011;12423;48.768;8.850;2023-04-24T10:46:19;133.02;;;126.15;;
24305;SDS011;12423;48.768;8.850;2023-04-24T10:48:26;147.73;;;140.15;;
24305;SDS011;12423;48.768;8.850;2023-04-24T10:50:27;129.18;;;122.30;;
24305;SDS011;12423;48.768;8.850;2023-04-24T10:52:48;113.07;;;107.28;;
24305;SDS011;12423;48.768;8.850;2023-04-24T10:54:51;131.88;;;124.70;;
24305;SDS011;12423;48.768;8.850;2023-04-24T10:56:53;117.43;;;111.28;;
24305;SDS011;12423;48.768;8.850;2023-04-24T10:59:34;120.68;;;114.68;;
24305;SDS011;12423;48.768;8.850;2023-04-24T11:01:37;112.75;;;106.57;;
24305;SDS011;12423;48.768;8.850;2023-04-24T11:03:39;135.60;;;128.40;;
24305;SDS011;12423;48.768;8.850;2023-04-24T11:05:52;143.90;;;136.25;;
24305;SDS011;12423;48.768;8.850;2023-04-24T11:08:15;141.63;;;133.77;;
24305;SDS011;12423;48.768;8.850;2023-04-24T11:10:25;82.18;;;77.63;;
24305;SDS011;12423;48.768;8.850;2023-04-24T11:12:27;62.47;;;58.58;;
24305;SDS011;12423;48.768;8.850;2023-04-24T11:14:28;52.33;;;48.78;;
24305;SDS011;12423;48.768;8.850;2023-04-24T11:18:37;58.67;;;54.67;;
24305;SDS011;12423;48.768;8.850;2023-04-24T11:20:43;56.72;;;53.22;;
24305;SDS011;12423;48.768;8.850;2023-04-24T11:22:45;85.35;;;79.68;;
24305;SDS011;12423;48.768;8.850;2023-04-24T11:26:56;61.65;;;57.90;;
24305;SDS011;12423;48.768;8.850;2023-04-24T11:29:07;82.25;;;77.32;;
24305;SDS011;12423;48.768;8.850;2023-04-24T11:33:38;48.72;;;45.38;;
24305;SDS011;12423;48.768;8.850;2023-04-24T11:35:40;22.85;;;21.02;;
24305;SDS011;12423;48.768;8.850;2023-04-24T11:37:42;18.45;;;16.75;;
24305;SDS011;12423;48.768;8.850;2023-04-24T11:39:51;12.63;;;9.00;;
24305;SDS011;12423;48.768;8.850;2023-04-24T11:42:01;8.98;;;4.68;;
24305;SDS011;12423;48.768;8.850;2023-04-24T11:44:05;11.18;;;9.40;;
24305;SDS011;12423;48.768;8.850;2023-04-24T11:46:07;11.52;;;8.93;;
24305;SDS011;12423;48.768;8.850;2023-04-24T11:48:08;15.52;;;14.13;;
24305;SDS011;12423;48.768;8.850;2023-04-24T11:50:13;18.83;;;17.10;;
24305;SDS011;12423;48.768;8.850;2023-04-24T11:52:16;58.05;;;54.35;;
24305;SDS011;12423;48.768;8.850;2023-04-24T11:54:17;29.83;;;27.65;;
24305;SDS011;12423;48.768;8.850;2023-04-24T11:56:18;31.58;;;29.30;;
24305;SDS011;12423;48.768;8.850;2023-04-24T11:58:20;35.03;;;32.97;;
24305;SDS011;12423;48.768;8.850;2023-04-24T12:00:23;40.28;;;37.40;;
24305;SDS011;12423;48.768;8.850;2023-04-24T12:02:31;55.33;;;51.42;;
24305;SDS011;12423;48.768;8.850;2023-04-24T12:04:42;47.30;;;43.63;;